Time;durP1;ratioP1;P1;durP2;ratioP2;P2;SDS_P1;SDS_P2;PMS_P1;PMS_P2;Temp;Humidity;BMP_temperature;BMP_pressure;BME280_temperature;BME280_humidity;BME280_pressure;Samples;Min_cycle;Max_cycle;Signal;HPM_P1;HPM_P2
2022/01/06 00:01:04;;;;;;;2.15;1.30;;;2.30;58.80;;;;;;4990501;28;20224;-75
2022/01/06 00:03:31;;;;;;;5.43;1.85;;;2.30;59.20;;;;;;4991683;28;20247;-75
2022/01/06 00:06:02;;;;;;;7.13;2.10;;;2.40;59.50;;;;;;4976666;28;20194;-76
2022/01/06 00:08:29;;;;;;;5.43;2.90;;;2.40;59.20;;;;;;4973560;28;20201;-76
2022/01/06 00:10:57;;;;;;;8.15;2.13;;;2.40;59.10;;;;;;4989535;28;20702;-76
2022/01/06 00:13:31;;;;;;;11.65;2.10;;;2.30;59.20;;;;;;4990178;28;20217;-75
2022/01/06 00:16:10;;;;;;;7.28;1.83;;;2.30;59.60;;;;;;4991720;28;20204;-75
2022/01/06 00:24:09;;;;;;;6.35;1.38;;;2.00;60.00;;;;;;4990672;28;20259;-76
2022/01/06 00:26:37;;;;;;;3.47;1.45;;;2.00;60.70;;;;;;4991260;28;20239;-76
2022/01/06 00:29:06;;;;;;;4.18;1.70;;;2.00;61.10;;;;;;4989995;28;20685;-75
2022/01/06 00:31:34;;;;;;;5.55;1.83;;;2.10;60.50;;;;;;4990953;28;20224;-74
2022/01/06 00:34:01;;;;;;;12.48;1.90;;;2.00;60.20;;;;;;4989979;28;20623;-75
2022/01/06 00:36:29;;;;;;;3.20;1.25;;;1.80;61.20;;;;;;4990253;28;20192;-75
2022/01/06 00:38:57;;;;;;;6.32;1.00;;;1.90;61.80;;;;;;4978323;28;20197;-76
2022/01/06 00:41:24;;;;;;;7.28;1.85;;;1.90;61.80;;;;;;4974430;28;20564;-75
2022/01/06 00:43:52;;;;;;;5.50;2.25;;;1.80;62.40;;;;;;4976964;28;20280;-75
2022/01/06 00:46:19;;;;;;;3.00;1.30;;;1.90;62.40;;;;;;4976344;28;20225;-74
2022/01/06 00:48:47;;;;;;;4.00;1.45;;;1.80;62.80;;;;;;4977605;28;20198;-75
2022/01/06 00:51:14;;;;;;;5.78;1.10;;;1.80;62.80;;;;;;4979328;28;20302;-76
2022/01/06 00:53:41;;;;;;;4.57;1.52;;;1.80;63.20;;;;;;4976723;28;20225;-75
2022/01/06 00:56:11;;;;;;;2.65;1.08;;;1.90;63.40;;;;;;4989835;28;20647;-75
2022/01/06 00:58:38;;;;;;;4.18;1.23;;;1.90;62.70;;;;;;4994432;28;20656;-76
2022/01/06 01:01:07;;;;;;;7.03;1.63;;;1.90;63.10;;;;;;4986963;28;20225;-76
2022/01/06 01:03:35;;;;;;;5.75;1.63;;;2.00;62.50;;;;;;4976253;28;20197;-74
2022/01/06 01:06:03;;;;;;;3.22;2.30;;;2.00;62.60;;;;;;4979701;28;20200;-76
2022/01/06 01:08:32;;;;;;;2.55;1.00;;;1.90;62.60;;;;;;4977231;28;20201;-78
2022/01/06 01:11:02;;;;;;;7.35;1.00;;;1.90;63.20;;;;;;4976319;28;20204;-78
2022/01/06 01:13:32;;;;;;;3.67;1.45;;;1.90;62.60;;;;;;4994731;28;20224;-78
2022/01/06 01:16:09;;;;;;;4.00;1.40;;;2.00;62.60;;;;;;4995937;28;20275;-78
2022/01/06 01:18:44;;;;;;;11.63;2.30;;;1.90;63.10;;;;;;4995339;28;20605;-77
2022/01/06 01:21:12;;;;;;;8.23;1.90;;;1.90;63.30;;;;;;4995984;28;20200;-77
2022/01/06 01:23:44;;;;;;;4.07;1.55;;;1.90;63.70;;;;;;4980059;28;20200;-78
2022/01/06 01:26:11;;;;;;;2.97;1.60;;;2.10;63.80;;;;;;4976453;28;20198;-79
2022/01/06 01:28:45;;;;;;;3.30;1.67;;;2.10;63.50;;;;;;4986907;28;20196;-78
2022/01/06 01:31:24;;;;;;;4.70;1.95;;;2.30;62.70;;;;;;4957386;29;20628;-78
2022/01/06 01:33:57;;;;;;;2.90;1.70;;;2.30;63.00;;;;;;4956866;29;20308;-77
2022/01/06 01:36:25;;;;;;;4.78;1.52;;;2.40;62.50;;;;;;4974220;28;20235;-77
2022/01/06 01:38:53;;;;;;;4.13;1.40;;;2.40;62.00;;;;;;4976174;28;20215;-77
2022/01/06 01:41:20;;;;;;;3.70;1.20;;;2.30;60.90;;;;;;4990392;28;20192;-78
2022/01/06 01:43:55;;;;;;;6.25;1.10;;;2.30;61.10;;;;;;4995544;28;20192;-77
2022/01/06 01:46:28;;;;;;;2.13;1.10;;;2.30;61.10;;;;;;4980720;28;20483;-78
2022/01/06 01:49:14;;;;;;;4.50;1.38;;;2.30;61.10;;;;;;4977396;28;20624;-78
2022/01/06 01:51:42;;;;;;;3.42;0.95;;;2.30;61.20;;;;;;4995662;28;20208;-78
2022/01/06 01:54:09;;;;;;;5.75;1.10;;;2.30;61.10;;;;;;4991389;28;20222;-78
2022/01/06 01:56:39;;;;;;;2.25;1.00;;;2.30;60.90;;;;;;4975700;28;20186;-78
2022/01/06 01:59:07;;;;;;;7.63;1.20;;;2.30;60.90;;;;;;4977459;28;20699;-78
2022/01/06 02:01:34;;;;;;;2.78;1.17;;;2.30;61.20;;;;;;4995231;28;20278;-76
2022/01/06 02:04:03;;;;;;;1.70;0.85;;;2.30;60.10;;;;;;4993710;28;20595;-76
2022/01/06 02:06:31;;;;;;;3.03;1.20;;;2.20;59.80;;;;;;4975720;28;20237;-76
2022/01/06 02:09:00;;;;;;;3.85;1.40;;;2.20;60.10;;;;;;4984467;28;20190;-76
2022/01/06 02:11:27;;;;;;;2.75;0.93;;;2.20;60.50;;;;;;4994996;28;20199;-76
2022/01/06 02:13:59;;;;;;;3.72;1.10;;;2.10;60.40;;;;;;4986489;28;20688;-75
2022/01/06 02:16:27;;;;;;;3.28;1.00;;;2.20;60.60;;;;;;4975518;28;20190;-76
2022/01/06 02:18:55;;;;;;;4.45;1.75;;;2.10;60.90;;;;;;4982115;28;20220;-75
2022/01/06 02:21:24;;;;;;;3.38;1.33;;;2.00;60.90;;;;;;4994168;28;20201;-76
2022/01/06 02:23:51;;;;;;;3.25;1.27;;;2.00;60.90;;;;;;4994767;28;20201;-75
2022/01/06 02:26:19;;;;;;;4.00;1.27;;;2.10;61.10;;;;;;4994759;28;20193;-75
2022/01/06 02:28:47;;;;;;;2.55;1.10;;;2.10;61.00;;;;;;4976333;28;20190;-74
2022/01/06 02:31:16;;;;;;;2.45;0.80;;;2.10;61.30;;;;;;4975322;28;20245;-76
2022/01/06 02:33:44;;;;;;;4.95;2.20;;;2.10;61.30;;;;;;4992592;28;20283;-75
2022/01/06 02:36:11;;;;;;;1.50;0.75;;;2.20;61.40;;;;;;4994342;28;20287;-75
2022/01/06 02:38:40;;;;;;;1.90;1.00;;;2.10;60.50;;;;;;4977615;28;20190;-77
2022/01/06 02:41:08;;;;;;;7.63;1.00;;;2.20;60.80;;;;;;4980079;28;20683;-79
2022/01/06 02:43:35;;;;;;;4.10;1.30;;;2.20;60.80;;;;;;4990199;28;20190;-78
2022/01/06 02:46:03;;;;;;;5.07;1.95;;;2.30;60.80;;;;;;4975131;28;20197;-78
2022/01/06 02:48:35;;;;;;;4.88;0.90;;;2.30;60.80;;;;;;4977216;28;20185;-78
2022/01/06 02:51:02;;;;;;;1.92;1.00;;;2.40;60.80;;;;;;4994408;28;20299;-78
2022/01/06 02:53:29;;;;;;;4.40;1.25;;;2.50;60.50;;;;;;4991558;28;20245;-78
2022/01/06 02:55:58;;;;;;;2.17;0.90;;;2.60;59.70;;;;;;4974952;28;20201;-78
2022/01/06 02:58:27;;;;;;;15.18;1.77;;;2.60;59.10;;;;;;4975324;28;20197;-78
2022/01/06 03:00:55;;;;;;;1.80;1.00;;;2.50;59.30;;;;;;4994039;28;20189;-78
2022/01/06 03:03:22;;;;;;;3.30;0.70;;;2.50;59.30;;;;;;4993831;28;20609;-78
2022/01/06 03:06:04;;;;;;;2.83;1.20;;;2.50;58.60;;;;;;4954400;28;20198;-75
2022/01/06 03:08:33;;;;;;;6.53;1.35;;;2.40;58.70;;;;;;4956720;28;20556;-75
2022/01/06 03:11:02;;;;;;;2.55;1.00;;;2.40;59.00;;;;;;4994033;28;20193;-76
2022/01/06 03:13:30;;;;;;;5.43;1.05;;;2.40;59.10;;;;;;4984110;28;20592;-76
2022/01/06 03:15:58;;;;;;;4.43;1.33;;;2.40;59.00;;;;;;4974530;28;20303;-76
2022/01/06 03:18:25;;;;;;;3.17;1.17;;;2.40;58.30;;;;;;4982013;28;20275;-75
2022/01/06 03:20:55;;;;;;;3.45;1.50;;;2.40;58.80;;;;;;4993334;28;20229;-76
2022/01/06 03:23:27;;;;;;;4.60;1.25;;;2.40;59.00;;;;;;4986027;28;20201;-76
2022/01/06 03:25:55;;;;;;;2.50;0.90;;;2.50;58.80;;;;;;4974241;28;20194;-76
2022/01/06 03:28:23;;;;;;;2.67;1.02;;;2.50;58.80;;;;;;4980385;28;20193;-76
2022/01/06 03:30:52;;;;;;;2.53;1.02;;;2.50;58.70;;;;;;4993649;28;20197;-75
2022/01/06 03:33:28;;;;;;;1.83;0.90;;;2.50;58.70;;;;;;4979731;28;20229;-75
2022/01/06 03:35:55;;;;;;;4.43;1.00;;;2.50;58.80;;;;;;4974228;28;20228;-76
2022/01/06 03:38:23;;;;;;;1.90;0.98;;;2.60;59.10;;;;;;4986899;28;20223;-76
2022/01/06 03:40:52;;;;;;;2.75;1.30;;;2.60;58.90;;;;;;4993461;28;20541;-75
2022/01/06 03:43:20;;;;;;;4.85;1.00;;;2.50;59.50;;;;;;4980129;28;20189;-75
2022/01/06 03:45:49;;;;;;;4.80;0.98;;;2.60;59.60;;;;;;4973994;28;20198;-75
2022/01/06 03:48:19;;;;;;;2.40;1.00;;;2.60;59.70;;;;;;4985076;28;20193;-75
2022/01/06 03:50:51;;;;;;;2.55;0.88;;;2.70;60.00;;;;;;4993213;28;20197;-75
2022/01/06 03:53:21;;;;;;;1.85;0.85;;;2.70;60.30;;;;;;4981490;28;20225;-75
2022/01/06 03:55:49;;;;;;;6.55;2.95;;;2.80;60.40;;;;;;4973697;28;20204;-75
2022/01/06 03:58:16;;;;;;;4.13;1.40;;;2.80;60.90;;;;;;4989980;28;20203;-74
2022/01/06 04:00:45;;;;;;;4.50;1.13;;;2.80;61.30;;;;;;4993086;28;20200;-75
2022/01/06 04:03:14;;;;;;;2.63;1.00;;;2.70;61.60;;;;;;4977567;28;20707;-75
2022/01/06 04:05:46;;;;;;;4.88;1.42;;;2.70;61.90;;;;;;4973763;28;20203;-76
2022/01/06 04:08:18;;;;;;;4.10;1.73;;;2.60;61.90;;;;;;4988762;28;20189;-75
2022/01/06 04:10:46;;;;;;;4.38;1.15;;;2.60;61.70;;;;;;4993156;28;20200;-75
2022/01/06 04:13:14;;;;;;;3.63;1.10;;;2.60;61.80;;;;;;4978189;28;20221;-76
2022/01/06 04:15:47;;;;;;;3.35;1.02;;;2.60;61.60;;;;;;4973321;28;20190;-76
2022/01/06 04:18:16;;;;;;;3.08;0.98;;;2.60;61.40;;;;;;4987373;28;20200;-76
2022/01/06 04:20:43;;;;;;;4.35;0.93;;;2.60;61.60;;;;;;4992839;28;20225;-75
2022/01/06 04:23:12;;;;;;;1.90;0.80;;;2.60;62.40;;;;;;4979670;28;20194;-76
2022/01/06 04:25:43;;;;;;;1.88;0.73;;;2.60;61.30;;;;;;4973521;28;20198;-76
2022/01/06 04:28:16;;;;;;;3.50;1.05;;;2.60;61.80;;;;;;4974450;28;20193;-76
2022/01/06 04:30:45;;;;;;;4.15;1.40;;;2.60;61.50;;;;;;4973656;28;20221;-75
2022/01/06 04:33:12;;;;;;;4.65;1.52;;;2.60;61.40;;;;;;4985366;28;20303;-75
2022/01/06 04:35:43;;;;;;;3.35;0.80;;;2.60;61.80;;;;;;4992868;28;20193;-75
2022/01/06 04:38:10;;;;;;;3.47;1.30;;;2.50;61.90;;;;;;4981214;28;20229;-75
2022/01/06 04:40:38;;;;;;;3.92;1.20;;;2.50;61.70;;;;;;4973570;28;20193;-75
2022/01/06 04:43:07;;;;;;;4.25;0.98;;;2.50;62.00;;;;;;4983368;28;20200;-76
2022/01/06 04:45:35;;;;;;;2.80;1.10;;;2.60;62.20;;;;;;4992711;28;20659;-75
2022/01/06 04:48:02;;;;;;;3.55;1.27;;;2.60;61.60;;;;;;4982338;28;20715;-75
2022/01/06 04:50:31;;;;;;;3.10;1.30;;;2.60;61.80;;;;;;4973399;28;20608;-75
2022/01/06 04:53:00;;;;;;;2.70;1.42;;;2.50;62.20;;;;;;4982269;28;20189;-75
2022/01/06 04:55:28;;;;;;;3.25;0.70;;;2.60;62.40;;;;;;4992863;28;20208;-76
2022/01/06 04:57:55;;;;;;;3.58;0.82;;;2.60;62.00;;;;;;4983173;28;20236;-76
2022/01/06 05:00:23;;;;;;;1.95;0.90;;;2.60;62.20;;;;;;4973360;28;20201;-75
2022/01/06 05:02:50;;;;;;;3.67;1.00;;;2.70;62.30;;;;;;4980657;28;20530;-76
2022/01/06 05:05:22;;;;;;;2.80;0.85;;;2.70;62.00;;;;;;4992632;28;20280;-75
2022/01/06 05:07:49;;;;;;;3.80;0.90;;;2.70;61.50;;;;;;4984606;28;20190;-76
2022/01/06 05:10:18;;;;;;;1.77;0.90;;;2.70;61.60;;;;;;4973284;28;20276;-75
2022/01/06 05:12:46;;;;;;;2.25;1.13;;;2.70;61.70;;;;;;4979699;28;20667;-75
2022/01/06 05:15:16;;;;;;;1.83;0.80;;;2.70;61.40;;;;;;4992458;28;20228;-75
2022/01/06 05:17:43;;;;;;;2.42;0.60;;;2.70;60.80;;;;;;4985856;28;20385;-75
2022/01/06 05:20:12;;;;;;;1.70;0.70;;;2.70;60.80;;;;;;4985012;28;20217;-76
2022/01/06 05:22:44;;;;;;;3.47;0.93;;;2.70;60.60;;;;;;4992303;28;20196;-76
2022/01/06 05:25:13;;;;;;;6.47;0.90;;;2.70;60.40;;;;;;4992709;28;20232;-76
2022/01/06 05:27:41;;;;;;;4.40;1.20;;;2.70;60.60;;;;;;4991554;28;20192;-76
2022/01/06 05:30:12;;;;;;;5.00;1.13;;;2.70;60.90;;;;;;4995911;28;20196;-76
2022/01/06 05:32:39;;;;;;;3.05;1.27;;;2.70;60.60;;;;;;4995918;28;20694;-76
2022/01/06 05:35:07;;;;;;;1.88;0.75;;;2.70;60.50;;;;;;4995361;28;20299;-75
2022/01/06 05:37:34;;;;;;;2.95;0.80;;;2.60;61.90;;;;;;4995397;28;20727;-76
2022/01/06 05:40:02;;;;;;;2.05;0.88;;;2.60;61.10;;;;;;4995235;28;20196;-76
2022/01/06 05:42:29;;;;;;;2.35;0.82;;;2.70;61.40;;;;;;4995774;28;20192;-75
2022/01/06 05:44:57;;;;;;;1.88;0.60;;;2.70;61.50;;;;;;4995289;28;20192;-76
2022/01/06 05:47:25;;;;;;;2.40;0.70;;;2.70;61.80;;;;;;4995041;28;20193;-76
2022/01/06 05:49:52;;;;;;;1.65;0.75;;;2.70;61.40;;;;;;4995146;28;20196;-72
2022/01/06 05:52:19;;;;;;;2.85;0.80;;;2.70;61.50;;;;;;4995770;28;20197;-75
2022/01/06 05:54:48;;;;;;;2.60;0.90;;;2.80;61.60;;;;;;4995606;28;20220;-76
2022/01/06 05:57:15;;;;;;;4.40;1.23;;;2.80;61.60;;;;;;4994734;28;20275;-76
2022/01/06 05:59:43;;;;;;;2.70;1.25;;;2.80;62.00;;;;;;4995204;28;20702;-76
2022/01/06 06:02:12;;;;;;;4.32;0.90;;;2.80;61.80;;;;;;4995342;28;20207;-76
2022/01/06 06:04:39;;;;;;;2.50;0.90;;;2.80;61.60;;;;;;4994990;28;20280;-76
2022/01/06 06:07:07;;;;;;;1.52;0.68;;;2.80;61.60;;;;;;4994927;28;20197;-76
2022/01/06 06:09:34;;;;;;;3.03;1.10;;;2.70;61.20;;;;;;4995421;28;20197;-76
2022/01/06 06:12:01;;;;;;;2.33;1.05;;;2.60;61.70;;;;;;4995118;28;20193;-76
2022/01/06 06:14:29;;;;;;;2.22;1.35;;;2.50;62.10;;;;;;4994440;28;20263;-75
2022/01/06 06:16:57;;;;;;;2.20;0.90;;;2.50;62.60;;;;;;4995100;28;20223;-75
2022/01/06 06:19:29;;;;;;;3.00;1.17;;;2.50;62.50;;;;;;4994141;28;20225;-75
2022/01/06 06:21:56;;;;;;;1.80;0.60;;;2.40;62.60;;;;;;4995185;28;20196;-75
2022/01/06 06:24:29;;;;;;;2.50;1.02;;;2.50;62.40;;;;;;4994721;28;20193;-76
2022/01/06 06:26:56;;;;;;;2.70;0.80;;;2.50;62.20;;;;;;4994635;28;20195;-76
2022/01/06 06:29:24;;;;;;;3.65;0.60;;;2.50;61.90;;;;;;4994548;28;20204;-75
2022/01/06 06:31:52;;;;;;;2.30;0.73;;;2.50;61.70;;;;;;4993210;28;20200;-76
2022/01/06 06:34:19;;;;;;;1.65;0.75;;;2.60;62.20;;;;;;4994892;28;20221;-76
2022/01/06 06:36:49;;;;;;;2.38;0.82;;;2.60;62.10;;;;;;4994625;28;20189;-76
2022/01/06 06:39:16;;;;;;;3.80;1.30;;;2.70;61.80;;;;;;4994154;28;20186;-75
2022/01/06 06:41:44;;;;;;;2.80;0.82;;;2.70;61.70;;;;;;4994447;28;20188;-76
2022/01/06 06:44:11;;;;;;;3.35;1.55;;;2.70;61.80;;;;;;4994798;28;20209;-76
2022/01/06 06:46:39;;;;;;;1.92;0.80;;;2.80;61.50;;;;;;4994176;28;20195;-76
2022/01/06 06:49:07;;;;;;;2.90;1.15;;;2.80;61.30;;;;;;4994108;28;20199;-76
2022/01/06 06:51:35;;;;;;;2.58;0.90;;;2.80;61.10;;;;;;4993937;28;20679;-76
2022/01/06 06:54:04;;;;;;;1.98;0.88;;;2.90;61.10;;;;;;4994483;28;20228;-78
2022/01/06 06:56:31;;;;;;;3.72;1.40;;;3.00;61.20;;;;;;4994226;28;20193;-78
2022/01/06 06:58:59;;;;;;;1.70;1.00;;;3.00;60.80;;;;;;4992966;28;20197;-78
2022/01/06 07:01:27;;;;;;;2.00;0.95;;;3.00;60.50;;;;;;4993904;28;20195;-78
2022/01/06 07:03:59;;;;;;;8.70;1.52;;;3.10;60.30;;;;;;4993813;28;20196;-78
2022/01/06 07:06:32;;;;;;;1.98;1.00;;;3.10;59.90;;;;;;4994284;28;20228;-78
2022/01/06 07:09:00;;;;;;;1.90;0.95;;;3.10;59.70;;;;;;4993181;28;20223;-78
2022/01/06 07:11:29;;;;;;;2.40;1.20;;;3.10;60.00;;;;;;4994125;28;20196;-78
2022/01/06 07:13:59;;;;;;;3.55;1.30;;;3.00;59.80;;;;;;4993619;28;20216;-78
2022/01/06 07:16:31;;;;;;;2.30;0.93;;;3.10;60.20;;;;;;4994159;28;20251;-76
2022/01/06 07:18:59;;;;;;;2.25;1.33;;;3.00;60.00;;;;;;4993080;28;20203;-75
2022/01/06 07:21:31;;;;;;;5.63;1.05;;;3.00;60.30;;;;;;4994026;28;20196;-75
2022/01/06 07:23:59;;;;;;;4.53;1.83;;;3.00;60.30;;;;;;4979050;28;20204;-76
2022/01/06 07:26:28;;;;;;;2.97;1.55;;;3.00;59.90;;;;;;4974598;28;20201;-75
2022/01/06 07:28:55;;;;;;;2.83;1.02;;;3.10;60.40;;;;;;4988209;28;20189;-75
2022/01/06 07:31:22;;;;;;;2.90;1.40;;;3.10;60.60;;;;;;4991557;28;20193;-76
2022/01/06 07:33:50;;;;;;;2.80;1.65;;;3.20;60.60;;;;;;4993832;28;20193;-76
2022/01/06 07:36:18;;;;;;;6.95;2.00;;;3.20;59.70;;;;;;4982173;28;20189;-75
2022/01/06 07:38:45;;;;;;;2.28;1.05;;;3.20;60.00;;;;;;4986640;28;20193;-75
2022/01/06 07:41:13;;;;;;;4.18;1.50;;;3.30;60.20;;;;;;4983352;28;20205;-76
2022/01/06 07:43:42;;;;;;;3.15;1.20;;;3.30;59.90;;;;;;4974339;28;20193;-76
2022/01/06 07:46:09;;;;;;;2.25;1.20;;;3.30;59.90;;;;;;4982462;28;20197;-76
2022/01/06 07:48:55;;;;;;;2.33;0.85;;;3.30;59.80;;;;;;4981745;28;20190;-76
2022/01/06 07:51:23;;;;;;;3.53;1.15;;;3.40;59.80;;;;;;4983279;28;20248;-75
2022/01/06 07:53:50;;;;;;;3.00;0.80;;;3.40;60.60;;;;;;4993514;28;20196;-76
2022/01/06 07:56:18;;;;;;;1.67;0.90;;;3.40;59.80;;;;;;4983897;28;20244;-75
2022/01/06 07:58:47;;;;;;;2.58;1.10;;;3.50;60.00;;;;;;4973949;28;20198;-76
2022/01/06 08:01:16;;;;;;;3.58;1.20;;;3.50;60.00;;;;;;4981092;28;20232;-75
2022/01/06 08:03:44;;;;;;;6.00;1.10;;;3.50;59.80;;;;;;4993242;28;20193;-75
2022/01/06 08:06:20;;;;;;;2.75;0.73;;;3.50;59.60;;;;;;4985359;28;20198;-76
2022/01/06 08:08:48;;;;;;;3.58;1.15;;;3.50;59.50;;;;;;4973925;28;20200;-75
2022/01/06 08:11:16;;;;;;;2.90;0.77;;;3.50;59.40;;;;;;4981178;28;20272;-75
2022/01/06 08:13:49;;;;;;;1.83;0.93;;;3.50;59.70;;;;;;4993195;28;20669;-75
2022/01/06 08:16:16;;;;;;;2.20;0.85;;;3.50;59.90;;;;;;4984599;28;20224;-76
2022/01/06 08:18:44;;;;;;;1.90;0.82;;;3.50;59.70;;;;;;4973779;28;20277;-75
2022/01/06 08:21:12;;;;;;;2.55;0.80;;;3.40;60.00;;;;;;4986717;28;20273;-76
2022/01/06 08:23:43;;;;;;;2.85;1.00;;;3.50;60.40;;;;;;4993143;28;20956;-73
2022/01/06 08:26:15;;;;;;;1.85;0.82;;;3.50;60.70;;;;;;4985611;28;20194;-76
2022/01/06 08:28:46;;;;;;;3.15;1.30;;;3.50;60.90;;;;;;4973454;28;20205;-75
2022/01/06 08:31:16;;;;;;;3.92;1.45;;;3.50;60.90;;;;;;4978666;28;20192;-76
2022/01/06 08:33:45;;;;;;;1.70;0.80;;;3.50;61.30;;;;;;4993109;28;20718;-75
2022/01/06 08:36:12;;;;;;;10.20;1.88;;;3.60;61.10;;;;;;4986108;28;20217;-76
2022/01/06 08:38:45;;;;;;;5.35;0.98;;;3.60;61.10;;;;;;4973652;28;20198;-76
2022/01/06 08:41:12;;;;;;;3.10;1.30;;;3.70;61.50;;;;;;4978979;28;20519;-75
2022/01/06 08:43:39;;;;;;;5.63;0.90;;;3.70;61.70;;;;;;4993029;28;20504;-76
2022/01/06 08:46:07;;;;;;;3.35;1.30;;;3.80;61.60;;;;;;4987077;28;20189;-76
2022/01/06 08:48:36;;;;;;;2.30;1.25;;;3.80;61.50;;;;;;4973580;28;20236;-76
2022/01/06 08:51:03;;;;;;;6.03;3.53;;;3.80;61.70;;;;;;4990717;28;20189;-75
2022/01/06 08:53:30;;;;;;;5.68;2.05;;;3.90;61.80;;;;;;4993020;28;20201;-76
2022/01/06 08:55:57;;;;;;;3.28;1.33;;;4.00;61.60;;;;;;4978590;28;20715;-75
2022/01/06 08:58:25;;;;;;;5.85;1.40;;;4.10;61.90;;;;;;4992802;28;20197;-76
2022/01/06 09:00:53;;;;;;;5.72;1.45;;;4.20;62.00;;;;;;4977022;28;20193;-76
2022/01/06 09:03:20;;;;;;;3.55;2.58;;;4.30;61.60;;;;;;4978235;28;20640;-76
2022/01/06 09:05:49;;;;;;;3.08;1.98;;;4.30;61.40;;;;;;4990255;28;20204;-75
2022/01/06 09:08:17;;;;;;;3.50;1.75;;;4.30;61.60;;;;;;4976393;28;20304;-76
2022/01/06 09:10:44;;;;;;;3.20;1.30;;;4.30;61.40;;;;;;4974718;28;20731;-76
2022/01/06 09:13:11;;;;;;;5.65;1.48;;;4.30;61.10;;;;;;4978311;28;20648;-76
2022/01/06 09:15:39;;;;;;;8.98;5.18;;;4.30;61.60;;;;;;4974757;28;20221;-75
2022/01/06 09:18:08;;;;;;;14.10;10.52;;;4.40;61.20;;;;;;4975325;28;20197;-75
2022/01/06 09:20:35;;;;;;;9.38;6.38;;;4.30;60.70;;;;;;4971989;28;20248;-76
2022/01/06 09:23:04;;;;;;;4.40;2.78;;;4.30;61.60;;;;;;4974807;28;20260;-77
2022/01/06 09:25:31;;;;;;;8.73;3.78;;;4.40;63.50;;;;;;4976291;28;20194;-76
2022/01/06 09:27:59;;;;;;;3.40;1.75;;;4.50;61.70;;;;;;4974271;28;20197;-76
2022/01/06 09:30:32;;;;;;;3.70;1.70;;;4.60;61.30;;;;;;4974636;28;20268;-78
2022/01/06 09:32:59;;;;;;;4.78;2.08;;;4.50;61.70;;;;;;4974118;28;20206;-78
2022/01/06 09:35:27;;;;;;;11.25;2.92;;;4.50;61.30;;;;;;4974288;28;20229;-76
2022/01/06 09:37:54;;;;;;;2.90;1.00;;;4.40;61.30;;;;;;4975066;28;20197;-78
2022/01/06 09:40:38;;;;;;;2.63;1.45;;;4.40;62.30;;;;;;4976041;28;20292;-75
2022/01/06 09:43:06;;;;;;;5.88;4.07;;;4.40;63.40;;;;;;4975884;28;20192;-75
2022/01/06 09:45:35;;;;;;;4.95;2.15;;;4.40;64.10;;;;;;4974512;28;20201;-75
2022/01/06 09:48:08;;;;;;;2.30;1.60;;;4.40;65.10;;;;;;4976178;28;20308;-75
2022/01/06 09:50:36;;;;;;;5.10;2.60;;;4.20;64.60;;;;;;4973752;28;20201;-76
2022/01/06 09:53:04;;;;;;;4.60;2.20;;;4.30;65.00;;;;;;4974053;28;20189;-76
2022/01/06 09:55:31;;;;;;;3.90;1.92;;;4.30;65.20;;;;;;4973890;28;20224;-76
2022/01/06 09:58:02;;;;;;;7.00;3.42;;;4.40;65.10;;;;;;4974219;28;20205;-76
2022/01/06 10:00:32;;;;;;;2.53;1.35;;;4.30;64.40;;;;;;4970293;28;20648;-78
2022/01/06 10:03:12;;;;;;;5.55;1.80;;;4.40;64.70;;;;;;4976466;28;20190;-78
2022/01/06 10:05:40;;;;;;;4.20;2.35;;;4.50;65.10;;;;;;4974596;28;20201;-78
2022/01/06 10:08:08;;;;;;;4.18;1.60;;;4.60;64.00;;;;;;4974527;28;20615;-79
2022/01/06 10:10:36;;;;;;;4.75;2.15;;;4.60;64.30;;;;;;4978107;28;20720;-77
2022/01/06 10:13:08;;;;;;;6.45;1.52;;;4.70;64.70;;;;;;4973336;28;20198;-75
2022/01/06 10:15:37;;;;;;;3.88;1.85;;;4.70;63.60;;;;;;4973081;28;20327;-76
2022/01/06 10:18:12;;;;;;;3.80;2.05;;;4.80;64.20;;;;;;4974773;28;20197;-77
2022/01/06 10:20:40;;;;;;;5.20;2.50;;;4.90;64.10;;;;;;4971187;28;20243;-77
2022/01/06 10:23:14;;;;;;;4.18;1.80;;;4.90;63.50;;;;;;4977377;28;20197;-77
2022/01/06 10:25:49;;;;;;;4.38;1.60;;;4.90;63.20;;;;;;4975164;28;20284;-75
2022/01/06 10:28:23;;;;;;;3.17;1.35;;;4.90;62.80;;;;;;4978432;28;20195;-76
2022/01/06 10:30:50;;;;;;;2.10;1.10;;;4.90;62.10;;;;;;4975070;28;20196;-76
2022/01/06 10:33:18;;;;;;;5.32;1.58;;;4.80;61.00;;;;;;4989985;28;20189;-76
2022/01/06 10:35:46;;;;;;;5.15;3.30;;;4.80;61.30;;;;;;4992208;28;20221;-76
2022/01/06 10:38:14;;;;;;;4.03;2.25;;;4.80;61.80;;;;;;4992119;28;20225;-76
2022/01/06 10:40:41;;;;;;;7.35;2.15;;;4.90;62.10;;;;;;4993191;28;20219;-77
2022/01/06 10:43:08;;;;;;;3.90;1.65;;;4.90;61.80;;;;;;4975027;28;20248;-78
2022/01/06 10:45:36;;;;;;;3.50;1.60;;;4.90;61.60;;;;;;4989602;28;20201;-78
2022/01/06 10:48:05;;;;;;;3.45;1.52;;;4.90;61.80;;;;;;4989438;28;20196;-78
2022/01/06 10:50:34;;;;;;;5.10;2.42;;;5.00;61.50;;;;;;4978219;28;20200;-78
2022/01/06 10:53:05;;;;;;;9.10;1.98;;;5.00;61.80;;;;;;4974684;28;20202;-81
2022/01/06 10:55:34;;;;;;;5.55;1.27;;;5.00;61.60;;;;;;4974828;28;20256;-80
2022/01/06 10:58:02;;;;;;;2.63;1.45;;;5.00;62.00;;;;;;4973602;28;20231;-77
2022/01/06 11:00:33;;;;;;;2.20;1.23;;;5.00;61.70;;;;;;4977098;28;20668;-77
2022/01/06 11:03:11;;;;;;;3.75;1.48;;;5.00;61.50;;;;;;4973627;28;20202;-78
2022/01/06 11:05:40;;;;;;;2.97;1.60;;;5.10;62.10;;;;;;4973607;28;20699;-77
2022/01/06 11:08:09;;;;;;;2.33;1.20;;;5.30;62.50;;;;;;4973417;28;20249;-78
2022/01/06 11:10:40;;;;;;;2.78;1.70;;;5.40;62.50;;;;;;4973793;28;20197;-77
2022/01/06 11:13:10;;;;;;;3.22;1.42;;;5.50;62.00;;;;;;4991564;28;20635;-77
2022/01/06 11:15:37;;;;;;;3.88;1.73;;;5.50;61.30;;;;;;4986338;28;20285;-77
2022/01/06 11:18:05;;;;;;;5.18;2.80;;;5.60;60.70;;;;;;4973023;28;20190;-78
2022/01/06 11:20:34;;;;;;;5.35;2.35;;;5.60;60.30;;;;;;4986139;28;20347;-77
2022/01/06 11:23:02;;;;;;;11.57;9.02;;;5.70;59.80;;;;;;4977067;28;20197;-78
2022/01/06 11:25:35;;;;;;;7.93;3.33;;;5.70;60.00;;;;;;4975607;28;20198;-78
2022/01/06 11:28:09;;;;;;;14.07;12.65;;;5.90;59.90;;;;;;4973411;28;20359;-78
2022/01/06 11:30:41;;;;;;;5.95;2.25;;;6.00;60.10;;;;;;4987994;28;20189;-78
2022/01/06 11:33:08;;;;;;;3.53;1.98;;;6.20;60.00;;;;;;4991781;28;20562;-79
2022/01/06 11:35:50;;;;;;;3.05;1.83;;;6.40;60.60;;;;;;4990812;28;20224;-79
2022/01/06 11:38:19;;;;;;;5.20;1.85;;;6.50;59.30;;;;;;4991448;28;20588;-78
2022/01/06 11:40:47;;;;;;;2.95;1.40;;;6.50;57.90;;;;;;4990855;28;20305;-78
2022/01/06 11:43:15;;;;;;;3.35;1.35;;;6.40;57.60;;;;;;4991085;28;20579;-78
2022/01/06 11:45:43;;;;;;;6.00;3.00;;;6.40;57.70;;;;;;4975200;28;20233;-77
2022/01/06 11:48:13;;;;;;;2.28;1.23;;;6.30;58.10;;;;;;4973104;28;20204;-74
2022/01/06 11:50:44;;;;;;;4.38;1.50;;;6.20;57.80;;;;;;4973468;28;20198;-78
2022/01/06 11:53:14;;;;;;;3.50;1.83;;;6.20;57.70;;;;;;4973403;28;20204;-78
2022/01/06 11:55:43;;;;;;;4.85;2.25;;;6.10;57.90;;;;;;4978759;28;20260;-77
2022/01/06 11:58:13;;;;;;;3.28;1.50;;;6.10;58.10;;;;;;4973248;28;20656;-78
2022/01/06 12:00:42;;;;;;;3.90;1.67;;;6.00;58.30;;;;;;4986115;28;20221;-78
2022/01/06 12:03:11;;;;;;;4.47;2.10;;;6.00;58.20;;;;;;4990975;28;20220;-78
2022/01/06 12:05:45;;;;;;;5.28;2.30;;;6.00;58.40;;;;;;4989597;28;20239;-78
2022/01/06 12:08:14;;;;;;;5.10;2.03;;;6.00;59.00;;;;;;4990062;28;20192;-77
2022/01/06 12:10:42;;;;;;;3.10;1.80;;;5.90;58.80;;;;;;4983410;28;20271;-77
2022/01/06 12:13:10;;;;;;;4.93;2.25;;;6.00;59.20;;;;;;4986393;28;20212;-78
2022/01/06 12:15:48;;;;;;;4.57;2.65;;;6.00;59.20;;;;;;4986487;28;20307;-78
2022/01/06 12:18:20;;;;;;;7.13;2.80;;;6.00;58.80;;;;;;4984189;28;20208;-78
2022/01/06 12:20:48;;;;;;;4.05;2.28;;;6.00;58.60;;;;;;4985205;28;20632;-78
2022/01/06 12:23:17;;;;;;;4.15;2.00;;;5.90;58.50;;;;;;4983586;28;20204;-78
2022/01/06 12:25:56;;;;;;;4.30;1.17;;;5.90;58.40;;;;;;4987608;28;20189;-78
2022/01/06 12:28:24;;;;;;;2.60;1.67;;;5.90;58.30;;;;;;4989039;28;20211;-77
2022/01/06 12:31:03;;;;;;;6.68;1.60;;;5.90;58.40;;;;;;4987214;28;20189;-78
2022/01/06 12:33:32;;;;;;;4.88;2.10;;;5.90;58.20;;;;;;4982446;28;20201;-78
2022/01/06 12:36:01;;;;;;;9.73;3.63;;;5.80;58.30;;;;;;4981597;28;20604;-77
2022/01/06 12:38:31;;;;;;;7.00;4.20;;;5.80;58.60;;;;;;4987127;28;20547;-78
2022/01/06 12:41:00;;;;;;;6.20;2.75;;;5.70;58.60;;;;;;4988743;28;20221;-78
2022/01/06 12:43:28;;;;;;;5.20;2.63;;;5.70;58.50;;;;;;4987723;28;20205;-78
2022/01/06 12:46:04;;;;;;;3.22;2.35;;;5.60;58.40;;;;;;4991054;28;20208;-78
2022/01/06 12:48:33;;;;;;;4.80;2.88;;;5.60;58.40;;;;;;4991184;28;20291;-78
2022/01/06 12:51:01;;;;;;;4.13;1.95;;;5.50;58.40;;;;;;4992342;28;20220;-76
2022/01/06 12:53:32;;;;;;;4.55;2.30;;;5.40;58.30;;;;;;4992388;28;20196;-77
2022/01/06 12:56:00;;;;;;;3.47;2.70;;;5.40;58.50;;;;;;4990447;28;20312;-78
2022/01/06 12:58:35;;;;;;;3.33;2.22;;;5.30;58.90;;;;;;4987157;28;20192;-77
2022/01/06 13:01:05;;;;;;;5.47;2.90;;;5.30;59.00;;;;;;4984571;28;20193;-78
2022/01/06 13:03:36;;;;;;;4.43;2.10;;;5.30;58.90;;;;;;4976548;28;20244;-78
2022/01/06 13:06:08;;;;;;;4.68;1.90;;;5.30;59.10;;;;;;4984287;28;20645;-78
2022/01/06 13:08:48;;;;;;;3.55;1.67;;;5.20;59.10;;;;;;4991727;28;20197;-78
2022/01/06 13:11:15;;;;;;;4.35;1.75;;;5.20;59.40;;;;;;4993876;28;20188;-77
2022/01/06 13:13:51;;;;;;;7.70;2.00;;;5.20;59.40;;;;;;4994140;28;20193;-76